Hector International Airport
KFAR : now visible

Airfield :











YOU CAN JOIN US ON...

 
LOGIN :

Register | Disclaimer

   EN    FR    IT 

 









Legend :    VFR   Marginal VFR   IFR   Intensive IFR   Very Intensive IFR
Visi :
Ceiling :
>= 8 km
>= 3000ft
5 to 8 km
1000 to 3000 ft
1500m to 5 km
500 to 1000 ft
800 to 1500m
200 to 500 ft
< 800m
< 200 ft
Symbols :   Thunderstorms  Fog  Heavy snow  Heavy precipitations  Wind > 20 kt






- Airport Elevation : 902 ft
- IATA code : FAR


KFAR - Hector International

CURRENT METAR :
  • 181206Z 31024G35KT 1SM -SN BR OVC027 M16/M18 A2992 RMK AO2 PK WND 29035/1205 P0000 T11611183 $

EXPIRED METARs :
  • 181141Z 31019G33KT 1 1/4SM -SN OVC036 M16/M18 A2992 RMK AO2 PK WND 30034/1131 P0000 T11561183 $
  • 181053Z 30025G35KT 1SM -SN BR OVC026 M15/M17 A2991 RMK AO2 PK WND 31035/1050 SLP147 P0000 T11501172 $
  • 180953Z 29020G27KT 1 1/2SM -SN BR OVC024 M14/M16 A2989 RMK AO2 PK WND 30028/0935 SLP139 P0000 T11391161
  • 180901Z 30016KT 1 1/2SM -SN BR FEW015 OVC021 M13/M15 A2987 RMK AO2 P0000 T11281150

TAF KFAR
Valid from the 18 at 12:00 until the 19 at 12:00 UTC


181137Z 1812/1912 32025G35KT 1SM -SN BLSN OVC020
FM181500 32028G40KT 1/4SM -SN BLSN OVC006
FM190200 31023KT 3SM BLSN BKN024
FM190600 31018KT P6SM OVC025



MET'MAP, your aeronautical weather chart ! - Copyright ORBIFLY December 2007 - Disclaimer

ORBIFLY MET'MAP TEAM :

Programming & Development : Alexandra Zaïnal
Concept & original design : Baudouin d'Aumeries
Assistance for programming : Marc-Olivier Méhu
Technical & hardware support : Manuel Goepfert

Contact : metmap@orbifly.com




SOURCES & CREDITS :

   NOAA       Earth
Advisory